AirNav   Pilot Hours Calculator
 
 1027 users online  

MD81 South River Seaplane Base
Edgewater, Maryland, USA

GOING TO EDGEWATER?


FAA INFORMATION EFFECTIVE 16 JUNE 2022

Location

FAA Identifier: MD81
Lat/Long: 38-54-53.0000N 076-30-17.0000W
38-54.883333N 076-30.283333W
38.9147222,-76.5047222
(estimated)
Elevation: 0 ft. / 0 m (estimated)
Variation: 10W (1990)
From city: 4 miles SE of EDGEWATER, MD
Time zone: UTC -4 (UTC -5 during Standard Time)
Zip code: 21037

Seaplane Base Operations

Seaplane Base use: Private use. Permission required prior to landing
Activation date: 09/1994
Control tower: no
ARTCC: WASHINGTON CENTER
FSS: LEESBURG FLIGHT SERVICE STATION
Attendance: SR-SS
Wind indicator: yes
Segmented circle: no

Seaplane Base Communications

WX AWOS-3 at W29 (9 nm NE): 120.575 (410-643-8795)
WX AWOS-3 at FME (16 nm NW): 123.925
WX ASOS at BWI (17 nm NW): PHONE 410-691-1278
WX AWOS-3 at CGS (20 nm W): 121.225 (301-864-5497)

Seaplane Base Services

Runway Information

Runway 16W/34W

Dimensions: 5000 x 150 ft. / 1524 x 46 m
Surface: water
RUNWAY 16W  RUNWAY 34W
Traffic pattern: leftleft
Obstructions: nonetrees, 210 ft. from runway

Seaplane Base Ownership and Management from official FAA records

Ownership: Privately-owned
Owner: NICOLAS VELD
6024 N 5000E RD
MANTENO, IL 60950
Manager: NICOLAS VELD
6024 N 5000E RD
MANTENO, IL 60950

Seaplane Base Operational Statistics

Aircraft based on the field: 8
Single engine airplanes: 5
Multi engine airplanes: 1
Ultralights: 2
    
Aircraft operations: 200/year *
100% local general aviation
* for 12-month period ending 28 April 2000

Additional Remarks

FOR CD CTC POTOMAC APCH AT 866-429-5882.

Instrument Procedures

There are no published instrument procedures at MD81.

Some nearby airports with instrument procedures:

KANP - Lee Airport (3 nm NW)
W29 - Bay Bridge Airport (9 nm NE)
W00 - Freeway Airport (13 nm W)
KFME - Tipton Airport (16 nm NW)
KBWI - Baltimore/Washington International Thurgood Marshall Airport (17 nm NW)
KADW - Joint Base Andrews (18 nm W)
KCGS - College Park Airport (20 nm W)
 
Loc | Ops | Rwys | IFR | FBO | Links
Com | Nav | Svcs | Stats | Notes
Area around MD81 (South River Seaplane Base)
 
Road maps at: MapQuest Bing Google
 
Aerial photo
WARNING: Photo may not be current or correct
Aerial photo of MD81 (South River Seaplane Base)
Do you have a better or more recent aerial photo of South River Seaplane Base that you would like to share? If so, please send us your photo.

 
Sectional chart

 
Airport distance calculator
Flying to South River Seaplane Base? Find the distance to fly.

From to MD81

Sunrise and sunset
Times for 02-Jul-2022
 Local
(UTC-4)
 Zulu
(UTC)
Morning civil twilight05:1409:14
Sunrise05:4609:46
Sunset20:3400:34
Evening civil twilight21:0601:06

Current date and time
Zulu (UTC)  02-Jul-2022 14:12:32
Local (UTC-4)  02-Jul-2022 10:12:32
 
METAR
KNAK 
4nm N 
021354Z AUTO 20005KT 10SM CLR 27/22 A2995 RMK AO2 SLP143 T02720217
KFME 
16nm NW 
021339Z AUTO 24007KT 10SM CLR 27/23 A2998 RMK AO1
KBWI 
17nm NW 
021354Z 24008KT 10SM FEW020 FEW150 BKN220 BKN250 29/21 A2995 RMK AO2 SLP139 T02890211
KADW 
18nm W 
021356Z AUTO 23008KT 10SM FEW180 26/21 A2995 RMK AO2 SLP146 T02640209 $
KCGS 
20nm W 
021338Z AUTO 26005KT 10SM CLR A2996 RMK AO1
TAF
KBWI 
17nm NW 
021125Z 0212/0318 23008G16KT P6SM VCSH FEW050 BKN130 FM021900 21008G16KT P6SM -SHRA VCTS BKN050CB BKN130 FM030000 VRB04KT 6SM -SHRA BKN050 BKN130 FM030300 VRB03KT 5SM BR BKN050 BKN130 FM030900 34005KT P6SM SCT050 BKN130
KADW 
18nm W 
020900Z 0209/0315 22009KT 9999 SCT050 OVC150 QNH2994INS TEMPO 0209/0214 22012G18KT BECMG 0218/0219 24012KT 9000 -SHRA VCTS SCT030CB OVC040 QNH2989INS TEMPO 0219/0224 VRB15G25KT 6000 -TSRA BKN030CB BECMG 0300/0301 VRB06KT 9000 -SHRA BKN030 OVC045 QNH2994INS BECMG 0304/0305 VRB06KT 8000 BR FEW030 BKN060 OVC090 QNH3000INS BECMG 0311/0312 34012KT 9999 NSW FEW030 QNH2997INS TX31/0219Z TN21/0308Z
NOTAMs
Click for the latest NOTAMs
NOTAMs are issued by the DoD/FAA and will open in a separate window not controlled by AirNav.

 

 
 

Would you like to see your business listed on this page?

 If your business provides an interesting product or service to pilots, flight crews, aircraft, or users of the South River Seaplane Base, you should consider listing it here.  To start the listing process, click on the button below
 
Add a business
 

Other Pages about South River Seaplane Base

www.presgroup.com/...
 
Update a link
 
Copyright © AirNav, LLC. All rights reserved. Privacy Policy  Contact